Center, Texas
Current Conditions -  °F | °C
As of 4:35 PM on Friday 19 Dec 2014 (Local Time) from KOCH Reporting Station
Overcast Overcast  
Wind Chill: 50°   Ceiling: 600
Heat Index: 50°   Visibility: 10mi
Dew Point: 46°   Wind: 6mph
Humidity: 87%   Direction: 30°NNE
Pressure: 30.11"   Gusts: NA
Location:  31.8°N, 94.18°W
Report Text: KOCH 192235Z AUTO 03005KT 10SM OVC006 10/08 A3011 RMK AO1
Loading
Personal Weather Stations






























Interactive Weather Map New forecast layout! Learn more

10-Day Weather Forecast

Advertisements
Track Severe Weather on mobile